sim
Sign-in with your pilot id or email,
or register
Callsign
Passwort

Schedule Details

Flight Number: OEC87718
Departure: Bilbao Airport (LEBB) at 14:00 UTC
Arrival: Munich Airport (EDDM) at 15:48 UTC
Route: PPN2E PPN UN995 LATEK DCT GONUP UN871 KINNI UZ67 KORED UN871 DITON T103 OSDER OSDE4A

Weather Information
Getting current METAR information for LEBB 220330Z VRB02KT CAVOK 15/15 Q1017 NOSIG
Getting current METAR information for EDDM 220320Z 33001KT 2500 0500S R08L/0650N R08R/0450U BCFG FEW001 08/07 Q1015 BECMG 3000

Schedule Frequency

Route Map